Time;durP1;ratioP1;P1;durP2;ratioP2;P2;SDS_P1;SDS_P2;PMS_P1;PMS_P2;Temp;Humidity;BMP_temperature;BMP_pressure;BME280_temperature;BME280_humidity;BME280_pressure;Samples;Min_cycle;Max_cycle;Signal;HPM_P1;HPM_P2
2023/05/01 00:00:17;;;;;;;5.88;3.17;;;13.30;99.90;;;;;;5053522;28;20028;-44
2023/05/01 00:02:43;;;;;;;4.28;3.15;;;13.30;99.90;;;;;;5053464;28;20056;-47
2023/05/01 00:05:09;;;;;;;5.80;3.22;;;13.30;99.90;;;;;;5053559;28;20498;-45
2023/05/01 00:07:34;;;;;;;4.43;3.42;;;13.30;99.90;;;;;;5052628;28;20032;-45
2023/05/01 00:10:00;;;;;;;5.00;2.83;;;13.30;99.90;;;;;;5053423;28;20472;-47
2023/05/01 00:12:26;;;;;;;4.43;3.40;;;13.30;99.90;;;;;;5053841;28;20033;-46
2023/05/01 00:14:55;;;;;;;4.47;3.40;;;13.30;99.90;;;;;;5053928;28;20433;-44
2023/05/01 00:17:21;;;;;;;4.70;3.40;;;13.30;99.90;;;;;;5052861;28;20124;-45
2023/05/01 00:19:51;;;;;;;3.90;3.00;;;13.30;99.90;;;;;;5053281;28;20032;-45
2023/05/01 00:22:17;;;;;;;4.07;3.08;;;13.30;99.90;;;;;;5053644;28;20036;-45
2023/05/01 00:24:43;;;;;;;3.75;3.33;;;13.30;99.90;;;;;;5053254;28;20025;-45
2023/05/01 00:27:08;;;;;;;4.38;3.17;;;13.30;99.90;;;;;;5052572;28;20029;-45
2023/05/01 00:29:34;;;;;;;4.03;3.38;;;13.30;99.90;;;;;;5053028;28;20021;-46
2023/05/01 00:32:00;;;;;;;3.60;3.05;;;13.30;99.90;;;;;;5053053;28;20021;-46
2023/05/01 00:34:25;;;;;;;5.43;3.03;;;13.30;99.90;;;;;;5052941;28;20386;-46
2023/05/01 00:36:51;;;;;;;4.25;3.20;;;13.30;99.90;;;;;;5052326;28;20106;-45
2023/05/01 00:39:16;;;;;;;3.95;3.13;;;13.30;99.90;;;;;;5052945;28;20032;-45
2023/05/01 00:41:42;;;;;;;3.97;3.08;;;13.30;99.90;;;;;;5053201;28;20394;-47
2023/05/01 00:44:08;;;;;;;7.68;2.97;;;13.30;99.90;;;;;;5053057;28;20036;-46
2023/05/01 00:46:34;;;;;;;3.70;3.10;;;13.30;99.90;;;;;;5052518;28;20498;-45
2023/05/01 00:49:00;;;;;;;4.97;2.90;;;13.30;99.90;;;;;;5052570;28;20391;-47
2023/05/01 00:51:28;;;;;;;3.75;3.05;;;13.30;99.90;;;;;;5052684;28;20048;-45
2023/05/01 00:53:55;;;;;;;4.07;3.10;;;13.20;99.90;;;;;;5051843;28;20059;-45
2023/05/01 00:56:21;;;;;;;3.20;2.88;;;13.30;99.90;;;;;;5052361;28;20398;-47
2023/05/01 00:58:52;;;;;;;5.38;3.38;;;13.30;99.90;;;;;;5052818;28;20035;-46
2023/05/01 01:01:20;;;;;;;6.50;3.38;;;13.20;99.90;;;;;;5052548;28;20040;-46
2023/05/01 01:03:46;;;;;;;5.90;2.90;;;13.30;99.90;;;;;;5052314;28;20064;-47
2023/05/01 01:06:35;;;;;;;5.80;3.10;;;13.20;99.90;;;;;;5051798;28;20025;-44
2023/05/01 01:09:12;;;;;;;4.38;2.83;;;13.30;99.90;;;;;;5052536;28;20028;-45
2023/05/01 01:11:47;;;;;;;4.20;3.00;;;13.30;99.90;;;;;;5052520;28;20082;-45
2023/05/01 01:14:20;;;;;;;3.65;2.90;;;13.30;99.90;;;;;;5052691;28;20025;-45
2023/05/01 01:17:06;;;;;;;3.42;2.75;;;13.30;99.90;;;;;;5051913;28;20071;-45
2023/05/01 01:20:02;;;;;;;4.38;2.78;;;13.30;99.90;;;;;;5048676;28;20029;-46
2023/05/01 01:22:29;;;;;;;6.30;3.45;;;13.30;99.90;;;;;;5052848;28;20418;-47
2023/05/01 01:25:10;;;;;;;3.00;2.70;;;13.30;99.90;;;;;;5052253;28;20364;-46
2023/05/01 01:28:02;;;;;;;3.60;2.90;;;13.30;99.90;;;;;;5051808;28;20025;-45
2023/05/01 01:30:28;;;;;;;3.38;3.08;;;13.30;99.90;;;;;;5051986;28;20032;-45
2023/05/01 01:33:40;;;;;;;5.07;2.80;;;13.30;99.90;;;;;;5051939;28;20021;-45
2023/05/01 01:36:15;;;;;;;3.45;2.75;;;13.30;99.90;;;;;;5051464;28;20399;-47
2023/05/01 01:39:05;;;;;;;4.28;3.20;;;13.30;99.90;;;;;;5051824;28;20032;-45
2023/05/01 01:41:34;;;;;;;5.45;3.13;;;13.30;99.90;;;;;;5051747;28;20029;-45
2023/05/01 01:44:07;;;;;;;3.60;2.90;;;13.30;99.90;;;;;;5051827;28;20027;-45
2023/05/01 01:46:40;;;;;;;3.20;2.90;;;13.20;99.90;;;;;;5051157;28;20029;-47
2023/05/01 01:49:12;;;;;;;4.13;2.90;;;13.30;99.90;;;;;;5051640;28;20440;-45
2023/05/01 01:51:40;;;;;;;5.25;2.97;;;13.30;99.90;;;;;;5051518;28;20035;-45
2023/05/01 01:54:08;;;;;;;3.22;2.92;;;13.20;99.90;;;;;;5051050;28;20464;-47
2023/05/01 01:56:36;;;;;;;3.55;2.70;;;13.30;99.90;;;;;;5051217;28;20415;-44
2023/05/01 01:59:05;;;;;;;4.03;2.70;;;13.30;99.90;;;;;;5051436;28;20532;-44
2023/05/01 02:01:33;;;;;;;4.30;2.90;;;13.20;99.90;;;;;;5051411;28;20468;-47
2023/05/01 02:03:59;;;;;;;3.97;2.63;;;13.20;99.90;;;;;;5051282;28;20295;-44
2023/05/01 02:06:26;;;;;;;3.70;2.83;;;13.20;99.90;;;;;;5050911;28;20442;-45
2023/05/01 02:08:53;;;;;;;6.55;3.20;;;13.30;99.90;;;;;;5051202;28;20028;-45
2023/05/01 02:11:20;;;;;;;4.53;3.10;;;13.30;99.90;;;;;;5051180;28;20032;-44
2023/05/01 02:13:48;;;;;;;4.25;3.25;;;13.30;99.90;;;;;;5051240;28;20107;-46
2023/05/01 02:16:15;;;;;;;5.35;3.20;;;13.30;99.90;;;;;;5051100;28;20535;-44
2023/05/01 02:18:41;;;;;;;3.97;3.10;;;13.20;99.90;;;;;;5051478;28;20104;-45
2023/05/01 02:21:09;;;;;;;3.35;2.90;;;13.30;99.90;;;;;;5051048;28;20059;-46
2023/05/01 02:23:36;;;;;;;4.15;3.00;;;13.30;99.90;;;;;;5051045;28;20025;-44
2023/05/01 02:26:03;;;;;;;5.25;2.97;;;13.30;99.90;;;;;;5050467;28;20398;-45
2023/05/01 02:28:30;;;;;;;3.70;2.72;;;13.30;99.90;;;;;;5051050;28;20099;-44
2023/05/01 02:30:56;;;;;;;3.83;3.00;;;13.30;99.90;;;;;;5050984;28;20029;-46
2023/05/01 02:33:22;;;;;;;4.00;2.90;;;13.30;99.90;;;;;;5050986;28;20123;-46
2023/05/01 02:35:48;;;;;;;3.90;2.80;;;13.20;99.90;;;;;;5050491;28;20471;-46
2023/05/01 02:38:15;;;;;;;4.18;2.90;;;13.30;99.90;;;;;;5050684;28;20029;-45
2023/05/01 02:40:45;;;;;;;5.93;2.80;;;13.20;99.90;;;;;;5050828;28;20408;-45
2023/05/01 02:43:15;;;;;;;5.22;2.63;;;13.30;99.90;;;;;;5050941;28;20079;-44
2023/05/01 02:45:42;;;;;;;3.90;2.72;;;13.30;99.90;;;;;;5050601;28;20056;-45
2023/05/01 02:48:12;;;;;;;3.13;2.60;;;13.20;99.90;;;;;;5051924;28;20029;-45
2023/05/01 02:50:41;;;;;;;4.55;2.75;;;13.20;99.90;;;;;;5051021;28;20021;-46
2023/05/01 02:53:08;;;;;;;4.55;3.00;;;13.30;99.90;;;;;;5050840;28;20033;-44
2023/05/01 02:55:34;;;;;;;3.95;2.95;;;13.30;99.90;;;;;;5050620;28;20483;-45
2023/05/01 02:58:00;;;;;;;9.00;2.78;;;13.20;99.90;;;;;;5050311;28;20029;-44
2023/05/01 03:00:26;;;;;;;3.30;2.97;;;13.30;99.90;;;;;;5050833;28;20544;-47
2023/05/01 03:02:52;;;;;;;3.50;3.00;;;13.20;99.90;;;;;;5050553;28;20029;-47
2023/05/01 03:05:18;;;;;;;3.53;2.90;;;13.30;99.90;;;;;;5050694;28;20158;-47
2023/05/01 03:07:45;;;;;;;5.20;3.00;;;13.20;99.90;;;;;;5050386;28;20025;-46
2023/05/01 03:10:11;;;;;;;3.47;2.85;;;13.20;99.90;;;;;;5050878;28;20433;-47
2023/05/01 03:12:36;;;;;;;3.50;2.72;;;13.20;99.90;;;;;;5050631;28;20112;-46
2023/05/01 03:15:02;;;;;;;5.50;2.70;;;13.20;99.90;;;;;;5050646;28;20017;-47
2023/05/01 03:17:28;;;;;;;4.68;2.92;;;13.20;99.90;;;;;;5052017;28;20025;-46
2023/05/01 03:19:54;;;;;;;3.42;2.50;;;13.30;99.90;;;;;;5054394;28;20040;-46
2023/05/01 03:22:20;;;;;;;3.00;2.60;;;13.20;99.90;;;;;;5054559;28;20498;-47
2023/05/01 03:24:46;;;;;;;3.63;2.83;;;13.20;99.90;;;;;;5054317;28;20049;-47
2023/05/01 03:27:12;;;;;;;3.05;2.75;;;13.20;99.90;;;;;;5053668;28;20025;-46
2023/05/01 03:29:37;;;;;;;3.20;2.90;;;13.20;99.90;;;;;;5054304;28;20025;-47
2023/05/01 03:32:04;;;;;;;3.67;2.90;;;13.30;99.90;;;;;;5054057;28;20077;-47
2023/05/01 03:34:29;;;;;;;6.35;2.97;;;13.20;99.90;;;;;;5054179;28;20443;-45
2023/05/01 03:36:55;;;;;;;3.03;2.70;;;13.20;99.90;;;;;;5053572;28;20060;-44
2023/05/01 03:39:21;;;;;;;5.25;2.97;;;13.20;99.90;;;;;;5053945;28;20025;-46
2023/05/01 03:41:47;;;;;;;3.83;2.45;;;13.20;99.90;;;;;;5054153;28;20075;-45
2023/05/01 03:44:12;;;;;;;6.40;3.10;;;13.20;99.90;;;;;;5053923;28;20028;-45
2023/05/01 03:46:38;;;;;;;3.90;2.95;;;13.20;99.90;;;;;;5053129;28;20033;-45
2023/05/01 03:49:04;;;;;;;3.42;2.80;;;13.20;99.90;;;;;;5053945;28;20147;-44
2023/05/01 03:51:29;;;;;;;5.30;3.20;;;13.20;99.90;;;;;;5053809;28;20391;-45
2023/05/01 03:53:57;;;;;;;3.97;2.67;;;13.20;99.90;;;;;;5053188;28;20029;-45
2023/05/01 03:56:24;;;;;;;3.72;2.70;;;13.20;99.90;;;;;;5053448;28;20033;-45
2023/05/01 03:58:50;;;;;;;6.07;2.67;;;13.20;99.90;;;;;;5055075;28;20115;-45
2023/05/01 04:01:16;;;;;;;7.03;3.05;;;13.20;99.90;;;;;;5053664;28;20017;-46
2023/05/01 04:03:41;;;;;;;8.48;2.90;;;13.20;99.90;;;;;;5053805;28;20052;-44
2023/05/01 04:06:07;;;;;;;3.70;2.70;;;13.20;99.90;;;;;;5053266;28;20040;-44
2023/05/01 04:08:33;;;;;;;4.30;3.10;;;13.20;99.90;;;;;;5053416;28;20021;-45
2023/05/01 04:10:59;;;;;;;3.83;2.80;;;13.20;99.90;;;;;;5053918;28;20363;-46
2023/05/01 04:13:25;;;;;;;6.22;2.83;;;13.20;99.90;;;;;;5054209;28;20036;-47
2023/05/01 04:15:51;;;;;;;5.95;3.00;;;13.20;99.90;;;;;;5053884;28;20430;-44
2023/05/01 04:18:16;;;;;;;5.18;2.92;;;13.20;99.90;;;;;;5053275;28;20021;-47
2023/05/01 04:20:42;;;;;;;4.30;2.92;;;13.20;99.90;;;;;;5053794;28;20056;-47
2023/05/01 04:23:08;;;;;;;7.15;2.97;;;13.20;99.90;;;;;;5053149;28;20394;-47
2023/05/01 04:25:35;;;;;;;4.45;3.05;;;13.20;99.90;;;;;;5053074;28;20025;-45
2023/05/01 04:28:01;;;;;;;4.57;3.28;;;13.20;99.90;;;;;;5052848;28;20024;-44
2023/05/01 04:30:26;;;;;;;5.70;3.03;;;13.20;99.90;;;;;;5054251;28;20390;-45
2023/05/01 04:32:56;;;;;;;3.65;2.72;;;13.20;99.90;;;;;;5053337;28;20025;-45
2023/05/01 04:35:22;;;;;;;4.68;3.25;;;13.20;99.90;;;;;;5053015;28;20064;-47
2023/05/01 04:37:48;;;;;;;3.53;2.63;;;13.20;99.90;;;;;;5052372;28;20069;-46
2023/05/01 04:40:13;;;;;;;3.95;3.13;;;13.20;99.90;;;;;;5053107;28;20136;-45
2023/05/01 04:42:39;;;;;;;3.17;2.88;;;13.20;99.90;;;;;;5053105;28;20029;-46
2023/05/01 04:45:05;;;;;;;3.58;2.95;;;13.20;99.90;;;;;;5053193;28;20036;-45
2023/05/01 04:47:31;;;;;;;4.28;2.80;;;13.20;99.90;;;;;;5052931;28;20057;-45
2023/05/01 04:49:57;;;;;;;5.15;2.72;;;13.20;99.90;;;;;;5054289;28;20510;-44
2023/05/01 04:52:22;;;;;;;5.25;3.15;;;13.20;99.90;;;;;;5053573;28;20033;-45
2023/05/01 04:54:48;;;;;;;7.38;3.10;;;13.20;99.90;;;;;;5054953;28;20079;-47
2023/05/01 04:57:14;;;;;;;4.22;3.17;;;13.20;99.90;;;;;;5052753;28;20017;-44
2023/05/01 04:59:40;;;;;;;4.45;2.92;;;13.20;99.90;;;;;;5052966;28;20029;-45
2023/05/01 05:02:06;;;;;;;3.05;2.60;;;13.20;99.90;;;;;;5052807;28;20028;-45
2023/05/01 05:04:32;;;;;;;6.65;2.90;;;13.20;99.90;;;;;;5052518;28;20514;-45
2023/05/01 05:06:58;;;;;;;4.05;3.03;;;13.30;99.90;;;;;;5051710;28;20100;-45
2023/05/01 05:09:23;;;;;;;3.53;2.95;;;13.20;99.90;;;;;;5052443;28;20175;-45
2023/05/01 05:11:49;;;;;;;6.32;3.10;;;13.20;99.90;;;;;;5052281;28;20023;-44
2023/05/01 05:14:14;;;;;;;3.30;2.83;;;13.20;99.90;;;;;;5052490;28;20062;-45
2023/05/01 05:16:40;;;;;;;5.15;3.03;;;13.20;99.90;;;;;;5051718;28;20049;-44
2023/05/01 05:19:06;;;;;;;3.58;3.00;;;13.20;99.90;;;;;;5052792;28;20422;-46
2023/05/01 05:21:32;;;;;;;3.92;3.20;;;13.20;99.90;;;;;;5052648;28;20095;-45
2023/05/01 05:23:57;;;;;;;3.80;2.95;;;13.20;99.90;;;;;;5052424;28;20100;-44
2023/05/01 05:26:25;;;;;;;4.78;3.25;;;13.20;99.90;;;;;;5051610;28;20045;-45
2023/05/01 05:28:51;;;;;;;3.85;3.03;;;13.20;99.90;;;;;;5052238;28;20017;-45
2023/05/01 05:31:17;;;;;;;3.35;2.80;;;13.20;99.90;;;;;;5054138;28;20025;-45
2023/05/01 05:33:43;;;;;;;3.83;2.70;;;13.20;99.90;;;;;;5052719;28;20021;-45
2023/05/01 05:36:09;;;;;;;3.67;2.70;;;13.20;99.90;;;;;;5051706;28;20020;-44
2023/05/01 05:38:35;;;;;;;4.65;2.75;;;13.30;99.90;;;;;;5054015;28;20021;-45
2023/05/01 05:41:01;;;;;;;5.30;3.15;;;13.20;99.90;;;;;;5052452;28;20416;-45
2023/05/01 05:43:27;;;;;;;4.13;2.97;;;13.20;99.90;;;;;;5052231;28;20037;-45
2023/05/01 05:45:57;;;;;;;3.33;2.95;;;13.30;99.90;;;;;;5051271;28;20116;-45
2023/05/01 05:48:23;;;;;;;4.00;3.08;;;13.20;99.90;;;;;;5051721;28;20037;-44
2023/05/01 05:50:51;;;;;;;3.28;2.97;;;13.20;99.90;;;;;;5051860;28;20475;-46
2023/05/01 05:53:19;;;;;;;5.22;3.25;;;13.30;99.90;;;;;;5051298;28;20014;-46
2023/05/01 05:55:48;;;;;;;3.47;2.83;;;13.20;99.90;;;;;;5051434;28;20163;-45
2023/05/01 05:58:18;;;;;;;6.15;3.40;;;13.30;99.90;;;;;;5052179;28;20024;-45
2023/05/01 06:00:48;;;;;;;4.10;3.17;;;13.20;99.90;;;;;;5052314;28;20063;-45
2023/05/01 06:03:15;;;;;;;5.47;2.97;;;13.30;99.90;;;;;;5051876;28;20045;-47
2023/05/01 06:05:42;;;;;;;3.85;3.03;;;13.30;99.90;;;;;;5052201;28;20025;-47
2023/05/01 06:08:11;;;;;;;5.35;3.47;;;13.20;99.90;;;;;;5051589;28;20522;-45
2023/05/01 06:10:38;;;;;;;4.85;3.28;;;13.30;99.90;;;;;;5051247;28;20022;-44
2023/05/01 06:13:06;;;;;;;3.70;2.67;;;13.30;99.90;;;;;;5049911;28;20141;-45
2023/05/01 06:15:32;;;;;;;4.32;3.40;;;13.30;99.90;;;;;;5052580;28;20017;-45
2023/05/01 06:17:58;;;;;;;3.00;2.67;;;13.30;99.90;;;;;;5051432;28;20118;-47
2023/05/01 06:20:23;;;;;;;4.70;2.60;;;13.30;99.90;;;;;;5051712;28;20033;-45
2023/05/01 06:22:49;;;;;;;4.28;2.63;;;13.30;99.90;;;;;;5051801;28;20134;-47
2023/05/01 06:25:15;;;;;;;3.95;3.00;;;13.20;99.90;;;;;;5051689;28;20380;-45
2023/05/01 06:27:40;;;;;;;4.85;2.83;;;13.20;99.90;;;;;;5051425;28;20035;-46
2023/05/01 06:30:08;;;;;;;3.60;2.70;;;13.30;99.90;;;;;;5051025;28;20020;-45
2023/05/01 06:32:34;;;;;;;4.68;2.88;;;13.30;99.90;;;;;;5052372;28;20444;-44
2023/05/01 06:34:59;;;;;;;5.25;3.05;;;13.30;99.90;;;;;;5051458;28;20044;-46
2023/05/01 06:37:25;;;;;;;3.83;2.95;;;13.30;99.90;;;;;;5051197;28;20052;-45
2023/05/01 06:39:51;;;;;;;4.30;2.95;;;13.30;99.90;;;;;;5051810;28;20029;-47
2023/05/01 06:42:16;;;;;;;4.63;3.28;;;13.30;99.90;;;;;;5051671;28;20116;-47
2023/05/01 06:44:42;;;;;;;4.53;3.28;;;13.30;99.90;;;;;;5052328;28;20021;-47
2023/05/01 06:47:08;;;;;;;3.92;3.00;;;13.30;99.90;;;;;;5051030;28;20391;-45
2023/05/01 06:49:34;;;;;;;4.05;2.88;;;13.30;99.90;;;;;;5051341;28;20013;-45
2023/05/01 06:52:00;;;;;;;3.70;3.30;;;13.30;99.90;;;;;;5052344;28;20082;-46
2023/05/01 06:54:26;;;;;;;4.40;3.67;;;13.30;99.90;;;;;;5055703;28;20044;-45
2023/05/01 06:56:54;;;;;;;3.63;3.00;;;13.30;99.90;;;;;;5055078;28;20025;-45
2023/05/01 06:59:21;;;;;;;4.13;3.25;;;13.30;99.90;;;;;;5056057;28;20029;-45
2023/05/01 07:01:47;;;;;;;4.88;3.03;;;13.30;99.90;;;;;;5055351;28;20024;-45
2023/05/01 07:04:12;;;;;;;5.32;2.70;;;13.30;99.90;;;;;;5056680;28;20380;-45
2023/05/01 07:06:38;;;;;;;2.97;2.50;;;13.30;99.90;;;;;;5054479;28;20028;-45
2023/05/01 07:09:05;;;;;;;3.22;2.83;;;13.30;99.90;;;;;;5055284;28;20035;-45
2023/05/01 07:11:31;;;;;;;5.43;2.92;;;13.30;99.90;;;;;;5056754;28;20050;-47
2023/05/01 07:13:57;;;;;;;4.10;3.10;;;13.30;99.90;;;;;;5055347;28;20079;-45
2023/05/01 07:16:23;;;;;;;4.05;2.60;;;13.30;99.90;;;;;;5054281;28;20029;-45
2023/05/01 07:18:49;;;;;;;5.43;3.15;;;13.30;99.90;;;;;;5055712;28;20025;-45
2023/05/01 07:21:14;;;;;;;4.63;2.75;;;13.30;99.90;;;;;;5054932;28;20453;-46
2023/05/01 07:23:40;;;;;;;3.65;2.88;;;13.30;99.90;;;;;;5054813;28;20379;-47
2023/05/01 07:26:06;;;;;;;3.42;2.40;;;13.30;99.90;;;;;;5054913;28;20032;-45
2023/05/01 07:28:32;;;;;;;4.00;3.10;;;13.30;99.90;;;;;;5055331;28;20028;-46
2023/05/01 07:30:58;;;;;;;3.55;3.03;;;13.30;99.90;;;;;;5055127;28;20029;-47
2023/05/01 07:33:24;;;;;;;4.20;2.95;;;13.30;99.90;;;;;;5056550;28;20023;-45
2023/05/01 07:35:50;;;;;;;4.20;3.40;;;13.30;99.90;;;;;;5054508;28;20199;-47
2023/05/01 07:38:16;;;;;;;5.25;2.90;;;13.30;99.90;;;;;;5054091;28;20033;-45
2023/05/01 07:40:42;;;;;;;4.25;3.40;;;13.30;99.90;;;;;;5054357;28;20048;-45
2023/05/01 07:43:10;;;;;;;4.35;3.25;;;13.30;99.90;;;;;;5054536;28;20056;-44
2023/05/01 07:45:37;;;;;;;3.70;2.78;;;13.30;99.90;;;;;;5054285;28;20368;-45
2023/05/01 07:48:03;;;;;;;3.17;2.80;;;13.40;99.90;;;;;;5053547;28;20021;-45
2023/05/01 07:50:29;;;;;;;3.75;3.22;;;13.40;99.90;;;;;;5054260;28;20024;-45
2023/05/01 07:52:56;;;;;;;3.25;2.72;;;13.30;99.90;;;;;;5054122;28;20023;-45
2023/05/01 07:55:22;;;;;;;2.92;2.63;;;13.30;99.90;;;;;;5054235;28;20029;-45
2023/05/01 07:57:48;;;;;;;4.38;2.85;;;13.40;99.90;;;;;;5054122;28;20171;-45
2023/05/01 08:00:14;;;;;;;4.68;2.80;;;13.40;99.90;;;;;;5054479;28;20518;-44
2023/05/01 08:02:39;;;;;;;4.00;2.85;;;13.40;99.90;;;;;;5053746;28;20039;-45
2023/05/01 08:05:06;;;;;;;3.40;2.78;;;13.30;99.90;;;;;;5054751;28;20037;-45
2023/05/01 08:07:31;;;;;;;4.50;3.15;;;13.40;99.90;;;;;;5054062;28;20044;-45
2023/05/01 08:09:59;;;;;;;3.53;3.03;;;13.40;99.90;;;;;;5054892;28;20025;-44
2023/05/01 08:12:24;;;;;;;4.13;3.10;;;13.40;99.90;;;;;;5054054;28;20040;-47
2023/05/01 08:14:50;;;;;;;3.75;2.90;;;13.40;99.90;;;;;;5053517;28;20471;-45
2023/05/01 08:17:16;;;;;;;5.72;3.33;;;13.40;99.90;;;;;;5052807;28;20025;-46
2023/05/01 08:19:41;;;;;;;3.00;2.70;;;13.40;99.90;;;;;;5053439;28;20029;-44
2023/05/01 08:22:07;;;;;;;3.80;2.70;;;13.40;99.90;;;;;;5053251;28;20116;-47
2023/05/01 08:24:33;;;;;;;4.00;3.17;;;13.40;99.90;;;;;;5053475;28;20029;-45
2023/05/01 08:26:58;;;;;;;2.83;2.60;;;13.40;99.90;;;;;;5052519;28;20071;-45
2023/05/01 08:29:24;;;;;;;2.88;2.55;;;13.40;99.90;;;;;;5053089;28;20364;-47
2023/05/01 08:31:49;;;;;;;4.45;2.70;;;13.40;99.90;;;;;;5053091;28;20047;-45
2023/05/01 08:34:16;;;;;;;3.03;2.65;;;13.40;99.90;;;;;;5052948;28;20455;-46
2023/05/01 08:36:41;;;;;;;3.65;2.53;;;13.40;99.90;;;;;;5052545;28;20017;-45
2023/05/01 08:39:07;;;;;;;3.28;2.63;;;13.40;99.90;;;;;;5052900;28;20368;-46
2023/05/01 08:41:34;;;;;;;3.40;2.30;;;13.40;99.90;;;;;;5052847;28;20116;-45
2023/05/01 08:44:02;;;;;;;3.58;2.47;;;13.40;99.90;;;;;;5052765;28;20029;-45
2023/05/01 08:46:40;;;;;;;4.97;2.67;;;13.30;99.90;;;;;;5052277;28;20029;-45
2023/05/01 08:49:08;;;;;;;3.08;2.63;;;13.30;99.90;;;;;;5052900;28;20056;-47
2023/05/01 08:51:35;;;;;;;3.45;2.53;;;13.40;99.90;;;;;;5052753;28;20104;-46
2023/05/01 08:54:04;;;;;;;3.17;2.70;;;13.40;99.90;;;;;;5052026;28;20429;-45
2023/05/01 08:56:30;;;;;;;5.13;2.60;;;13.40;99.90;;;;;;5052094;28;20083;-47
2023/05/01 08:58:57;;;;;;;2.92;2.63;;;13.40;99.90;;;;;;5052684;28;20047;-45
2023/05/01 09:01:24;;;;;;;3.33;2.70;;;13.40;99.90;;;;;;5052952;28;20603;-45
2023/05/01 09:03:52;;;;;;;3.35;2.90;;;13.40;99.90;;;;;;5052360;28;20062;-47
2023/05/01 09:06:19;;;;;;;3.30;2.65;;;13.40;99.90;;;;;;5051910;28;20049;-46
2023/05/01 09:08:44;;;;;;;3.28;2.53;;;13.40;99.90;;;;;;5052240;28;20025;-45
2023/05/01 09:11:10;;;;;;;2.83;2.35;;;13.40;99.90;;;;;;5052365;28;20529;-47
2023/05/01 09:13:37;;;;;;;4.72;2.90;;;13.40;99.90;;;;;;5052231;28;20025;-45
2023/05/01 09:16:04;;;;;;;2.65;2.30;;;13.40;99.90;;;;;;5049998;28;20487;-45
2023/05/01 09:18:30;;;;;;;3.38;2.78;;;13.40;99.90;;;;;;5052172;28;20545;-45
2023/05/01 09:20:57;;;;;;;3.60;2.50;;;13.40;99.90;;;;;;5052256;28;20043;-45
2023/05/01 09:23:22;;;;;;;2.97;2.60;;;13.40;99.90;;;;;;5051918;28;20376;-47
2023/05/01 09:25:50;;;;;;;3.88;2.92;;;13.40;99.90;;;;;;5051646;28;20028;-45
2023/05/01 09:28:15;;;;;;;3.60;2.85;;;13.40;99.90;;;;;;5052041;28;20470;-45
2023/05/01 09:30:41;;;;;;;3.10;2.40;;;13.40;99.90;;;;;;5051943;28;20107;-45
2023/05/01 09:33:15;;;;;;;3.60;3.00;;;13.40;99.90;;;;;;5051891;28;20020;-47
2023/05/01 09:35:55;;;;;;;3.95;2.63;;;13.40;99.90;;;;;;5051969;28;20059;-47
2023/05/01 09:38:25;;;;;;;3.33;2.50;;;13.40;99.90;;;;;;5051939;28;20036;-45
2023/05/01 09:40:53;;;;;;;3.35;2.80;;;13.40;99.90;;;;;;5051821;28;20413;-45
2023/05/01 09:43:29;;;;;;;3.92;2.40;;;13.40;99.90;;;;;;5052052;28;20390;-46
2023/05/01 09:46:03;;;;;;;4.15;2.67;;;13.40;99.90;;;;;;5051136;28;20029;-45
2023/05/01 09:48:29;;;;;;;3.83;2.63;;;13.40;99.90;;;;;;5051473;28;20032;-44
2023/05/01 09:50:55;;;;;;;3.45;2.85;;;13.40;99.90;;;;;;5051569;28;20414;-47
2023/05/01 09:53:36;;;;;;;2.95;2.55;;;13.50;99.90;;;;;;5051033;28;20047;-45
2023/05/01 09:56:02;;;;;;;3.08;2.67;;;13.40;99.90;;;;;;5051036;28;20083;-46
2023/05/01 09:58:28;;;;;;;3.55;2.60;;;13.50;99.90;;;;;;5051316;28;20419;-44
2023/05/01 10:00:53;;;;;;;2.75;2.40;;;13.50;99.90;;;;;;5051515;28;20076;-45
2023/05/01 10:03:19;;;;;;;3.90;2.88;;;13.50;99.90;;;;;;5051459;28;20043;-45
2023/05/01 10:05:45;;;;;;;3.13;2.60;;;13.50;99.90;;;;;;5051182;28;20059;-45
2023/05/01 10:08:14;;;;;;;2.90;2.60;;;13.50;99.90;;;;;;5051142;28;20025;-47
2023/05/01 10:10:42;;;;;;;2.83;2.53;;;13.50;99.90;;;;;;5051312;28;20024;-45
2023/05/01 10:13:17;;;;;;;3.00;2.60;;;13.50;99.90;;;;;;5051267;28;20025;-45
2023/05/01 10:15:45;;;;;;;3.00;2.67;;;13.50;99.90;;;;;;5050901;28;20096;-45
2023/05/01 10:18:13;;;;;;;3.03;2.33;;;13.50;99.90;;;;;;5050956;28;20479;-45
2023/05/01 10:20:39;;;;;;;2.90;2.42;;;13.50;99.90;;;;;;5051141;28;20024;-46
2023/05/01 10:23:05;;;;;;;3.15;2.53;;;13.50;99.90;;;;;;5051096;28;20501;-45
2023/05/01 10:25:31;;;;;;;3.63;2.88;;;13.50;99.90;;;;;;5050561;28;20021;-47
2023/05/01 10:27:58;;;;;;;2.28;2.08;;;13.60;99.90;;;;;;5050200;28;20029;-44
2023/05/01 10:30:25;;;;;;;2.90;2.60;;;13.50;99.90;;;;;;5050920;28;20044;-46
2023/05/01 10:32:51;;;;;;;2.78;2.58;;;13.60;99.90;;;;;;5051005;28;20071;-45
2023/05/01 10:35:28;;;;;;;2.80;2.28;;;13.60;99.90;;;;;;5051017;28;20541;-46
2023/05/01 10:38:01;;;;;;;3.67;2.80;;;13.50;99.90;;;;;;5050222;28;20086;-45
2023/05/01 10:40:42;;;;;;;2.75;2.38;;;13.60;99.90;;;;;;5051035;28;20549;-47
2023/05/01 10:43:25;;;;;;;3.30;2.50;;;13.60;99.90;;;;;;5050936;28;20033;-47
2023/05/01 10:45:51;;;;;;;3.05;2.38;;;13.70;99.90;;;;;;5050628;28;20033;-44
2023/05/01 10:48:38;;;;;;;3.75;2.33;;;13.70;99.90;;;;;;5051601;28;20541;-46
2023/05/01 10:51:13;;;;;;;2.80;2.50;;;13.70;99.90;;;;;;5052978;28;20083;-45
2023/05/01 10:53:43;;;;;;;2.95;2.30;;;13.70;99.90;;;;;;5051245;28;20025;-45
2023/05/01 10:56:29;;;;;;;2.92;2.42;;;13.70;99.90;;;;;;5051776;28;20025;-45
2023/05/01 10:58:59;;;;;;;3.40;2.50;;;13.70;99.90;;;;;;5048249;28;20045;-46
2023/05/01 11:01:44;;;;;;;2.40;2.20;;;13.70;99.90;;;;;;5051838;28;20029;-46
2023/05/01 11:04:18;;;;;;;3.00;2.67;;;13.70;99.90;;;;;;5051535;28;20029;-45
2023/05/01 11:07:09;;;;;;;3.85;2.45;;;13.70;99.90;;;;;;5051112;28;20471;-47
2023/05/01 11:09:41;;;;;;;4.07;2.25;;;13.60;99.90;;;;;;5050695;28;20037;-45
2023/05/01 11:12:08;;;;;;;3.78;2.60;;;13.70;99.90;;;;;;5050792;28;20075;-46
2023/05/01 11:14:52;;;;;;;3.33;2.90;;;13.60;99.90;;;;;;5050455;28;20383;-44
2023/05/01 11:17:40;;;;;;;3.58;2.90;;;13.60;99.90;;;;;;5049901;28;20028;-45
2023/05/01 11:20:07;;;;;;;4.68;2.75;;;13.60;99.90;;;;;;5050675;28;20463;-46
2023/05/01 11:22:37;;;;;;;3.15;2.83;;;13.60;99.90;;;;;;5050486;28;20064;-45
2023/05/01 11:25:16;;;;;;;3.55;2.58;;;13.70;99.90;;;;;;5050431;28;20032;-46
2023/05/01 11:27:46;;;;;;;5.22;2.92;;;13.60;99.90;;;;;;5049774;28;20104;-45
2023/05/01 11:30:12;;;;;;;3.80;2.70;;;13.60;99.90;;;;;;5050424;28;20029;-46
2023/05/01 11:32:43;;;;;;;3.17;2.60;;;13.60;99.90;;;;;;5050378;28;20124;-46
2023/05/01 11:35:15;;;;;;;3.03;2.70;;;13.70;99.90;;;;;;5050402;28;20474;-45
2023/05/01 11:37:45;;;;;;;3.00;2.70;;;13.60;99.90;;;;;;5050763;28;20100;-44
2023/05/01 11:40:32;;;;;;;3.67;2.60;;;13.70;99.90;;;;;;5054047;28;20021;-46
2023/05/01 11:43:05;;;;;;;2.90;2.63;;;13.60;99.90;;;;;;5054068;28;20025;-44
2023/05/01 11:45:32;;;;;;;3.35;2.60;;;13.70;99.90;;;;;;5054082;28;20021;-45
2023/05/01 11:47:58;;;;;;;3.53;2.95;;;13.70;99.90;;;;;;5053518;28;20040;-44
2023/05/01 11:50:37;;;;;;;3.35;2.60;;;13.70;99.90;;;;;;5055410;28;20440;-44
2023/05/01 11:53:10;;;;;;;3.15;2.30;;;13.70;99.90;;;;;;5053923;28;20032;-45
2023/05/01 11:55:37;;;;;;;3.40;2.40;;;13.70;99.90;;;;;;5054902;28;20040;-45
2023/05/01 11:58:03;;;;;;;3.20;2.67;;;13.70;99.90;;;;;;5053465;28;20021;-45
2023/05/01 12:00:38;;;;;;;2.75;2.50;;;13.70;99.90;;;;;;5054390;28;20053;-46
2023/05/01 12:03:11;;;;;;;2.80;2.38;;;13.70;99.90;;;;;;5052391;28;20044;-45
2023/05/01 12:05:41;;;;;;;3.97;2.40;;;13.80;99.90;;;;;;5053693;28;20072;-45
2023/05/01 12:08:17;;;;;;;2.92;2.35;;;13.80;99.90;;;;;;5053342;28;20021;-46
2023/05/01 12:10:45;;;;;;;4.43;2.50;;;13.80;99.90;;;;;;5053551;28;20032;-45
2023/05/01 12:13:12;;;;;;;2.80;2.30;;;13.80;99.90;;;;;;5053386;28;20029;-45
2023/05/01 12:15:42;;;;;;;3.08;2.40;;;13.80;99.90;;;;;;5053560;28;20018;-47
2023/05/01 12:18:07;;;;;;;3.22;2.90;;;13.80;99.90;;;;;;5053144;28;20021;-47
2023/05/01 12:20:46;;;;;;;3.03;2.42;;;13.80;99.90;;;;;;5053319;28;20040;-45
2023/05/01 12:23:13;;;;;;;4.10;2.40;;;13.90;99.90;;;;;;5054266;28;20025;-46
2023/05/01 12:25:39;;;;;;;3.05;2.63;;;13.90;99.90;;;;;;5053461;28;20036;-47
2023/05/01 12:28:12;;;;;;;3.08;2.58;;;13.90;99.90;;;;;;5052726;28;20028;-46
2023/05/01 12:30:38;;;;;;;3.15;2.58;;;13.90;99.90;;;;;;5053317;28;20025;-45
2023/05/01 12:33:12;;;;;;;3.75;2.78;;;13.90;99.90;;;;;;5053142;28;20021;-45
2023/05/01 12:35:38;;;;;;;;;;;13.90;99.90;;;;;;5053400;28;20104;-45
2023/05/01 12:38:14;;;;;;;3.38;2.60;;;13.90;99.90;;;;;;5052442;28;19908;-46
2023/05/01 12:40:52;;;;;;;2.50;2.30;;;13.90;99.90;;;;;;5053026;28;20028;-44
2023/05/01 12:43:31;;;;;;;3.33;2.50;;;13.90;99.90;;;;;;5053011;28;20052;-45
2023/05/01 12:45:57;;;;;;;3.08;2.78;;;13.90;99.90;;;;;;5052533;28;20025;-46
2023/05/01 12:48:24;;;;;;;3.90;2.78;;;13.90;99.90;;;;;;5052514;28;20029;-47
2023/05/01 12:50:53;;;;;;;3.08;2.60;;;13.90;99.90;;;;;;5051961;28;20067;-45
2023/05/01 12:53:23;;;;;;;3.10;2.60;;;13.90;99.90;;;;;;5051878;28;20056;-45